Time;durP1;ratioP1;P1;durP2;ratioP2;P2;SDS_P1;SDS_P2;PMS_P1;PMS_P2;Temp;Humidity;BMP_temperature;BMP_pressure;BME280_temperature;BME280_humidity;BME280_pressure;Samples;Min_cycle;Max_cycle;Signal;HPM_P1;HPM_P2
2022/03/08 00:01:07;;;;;;;13.73;10.70;;;-0.60;80.20;;;;;;6133802;23;20440;-85
2022/03/08 00:03:33;;;;;;;15.43;11.00;;;-0.60;81.10;;;;;;6133550;23;20540;-86
2022/03/08 00:06:01;;;;;;;14.47;11.27;;;-0.60;81.10;;;;;;6131988;23;20400;-86
2022/03/08 00:08:27;;;;;;;15.77;11.63;;;-0.70;81.60;;;;;;6136713;23;20482;-85
2022/03/08 00:10:53;;;;;;;15.57;10.83;;;-0.70;81.80;;;;;;6138977;23;20435;-86
2022/03/08 00:13:18;;;;;;;16.87;10.93;;;-0.70;82.30;;;;;;6145426;23;20933;-87
2022/03/08 00:15:44;;;;;;;15.83;11.17;;;-0.70;82.50;;;;;;6137011;23;20794;-87
2022/03/08 00:18:10;;;;;;;16.70;12.47;;;-0.80;82.90;;;;;;6134608;23;20156;-87
2022/03/08 00:20:36;;;;;;;15.47;10.90;;;-0.80;83.20;;;;;;6131766;23;20161;-86
2022/03/08 00:23:02;;;;;;;14.38;11.27;;;-1.00;83.00;;;;;;6134098;23;20711;-86
2022/03/08 00:25:29;;;;;;;16.20;10.77;;;-0.90;83.30;;;;;;6133267;23;20164;-86
2022/03/08 00:27:56;;;;;;;15.80;11.73;;;-0.90;84.10;;;;;;6136677;23;20534;-86
2022/03/08 00:30:23;;;;;;;13.97;10.10;;;-0.90;84.60;;;;;;6135072;23;20406;-86
2022/03/08 00:32:53;;;;;;;14.30;10.67;;;-0.80;83.90;;;;;;6134656;23;20472;-86
2022/03/08 00:35:20;;;;;;;16.50;10.63;;;-0.90;84.20;;;;;;6133097;23;20395;-87
2022/03/08 00:37:48;;;;;;;15.40;11.27;;;-0.90;83.70;;;;;;6136470;23;20411;-88
2022/03/08 00:40:15;;;;;;;15.10;11.33;;;-0.90;83.80;;;;;;6135050;23;20889;-87
2022/03/08 00:42:41;;;;;;;14.60;10.97;;;-1.00;83.60;;;;;;6133042;23;20439;-87
2022/03/08 00:45:08;;;;;;;17.37;12.00;;;-1.00;84.00;;;;;;6132174;23;20825;-86
2022/03/08 00:47:36;;;;;;;15.35;10.98;;;-1.20;85.10;;;;;;6132966;23;20157;-87
2022/03/08 00:50:03;;;;;;;15.52;10.90;;;-1.30;86.80;;;;;;6132041;23;20183;-85
2022/03/08 00:52:30;;;;;;;17.85;10.95;;;-1.50;87.80;;;;;;6135776;23;20256;-84
2022/03/08 00:54:56;;;;;;;15.32;10.80;;;-1.40;87.80;;;;;;6136674;23;20211;-86
2022/03/08 00:57:21;;;;;;;15.57;10.67;;;-1.40;87.50;;;;;;6144958;23;20156;-85
2022/03/08 00:59:47;;;;;;;15.00;11.00;;;-1.40;87.00;;;;;;6133426;23;20396;-86
2022/03/08 01:02:12;;;;;;;13.97;10.93;;;-1.40;86.60;;;;;;6133914;23;20258;-86
2022/03/08 01:04:38;;;;;;;14.10;9.67;;;-1.20;86.60;;;;;;6132336;23;20894;-87
2022/03/08 01:07:06;;;;;;;14.03;9.90;;;-1.20;85.70;;;;;;6134116;23;20596;-87
2022/03/08 01:09:35;;;;;;;12.68;10.10;;;-1.20;85.80;;;;;;6134872;23;20153;-87
2022/03/08 01:12:00;;;;;;;15.32;9.55;;;-1.30;85.90;;;;;;6134687;23;20587;-86
2022/03/08 01:14:26;;;;;;;13.70;9.73;;;-1.20;86.50;;;;;;6131567;23;20160;-86
2022/03/08 01:16:54;;;;;;;14.60;9.83;;;-1.20;85.50;;;;;;6132997;23;20218;-86
2022/03/08 01:19:20;;;;;;;13.20;10.32;;;-1.20;87.20;;;;;;6133863;23;20269;-86
2022/03/08 01:21:45;;;;;;;13.43;9.47;;;-1.10;86.80;;;;;;6134631;23;20576;-87
2022/03/08 01:24:21;;;;;;;15.60;9.73;;;-1.10;86.20;;;;;;6136128;23;20242;-86
2022/03/08 01:26:46;;;;;;;17.38;11.48;;;-1.10;86.00;;;;;;6134435;23;20160;-86
2022/03/08 01:29:12;;;;;;;13.93;10.53;;;-1.20;85.70;;;;;;6134970;23;20172;-86
2022/03/08 01:31:37;;;;;;;11.87;9.47;;;-1.20;86.60;;;;;;6131670;23;20212;-86
2022/03/08 01:34:21;;;;;;;11.73;9.07;;;-1.30;86.90;;;;;;6131423;23;20609;-85
2022/03/08 01:36:47;;;;;;;14.85;10.43;;;-1.20;86.30;;;;;;6131946;23;20153;-85
2022/03/08 01:39:13;;;;;;;13.20;10.27;;;-1.20;85.30;;;;;;6132420;23;20675;-85
2022/03/08 01:41:38;;;;;;;14.60;9.10;;;-1.10;85.10;;;;;;6130302;23;20485;-86
2022/03/08 01:44:04;;;;;;;11.23;9.00;;;-1.20;85.30;;;;;;6130933;23;20196;-85
2022/03/08 01:46:30;;;;;;;15.17;9.50;;;-1.10;85.20;;;;;;6131438;23;20683;-85
2022/03/08 01:48:55;;;;;;;14.17;11.03;;;-1.10;85.20;;;;;;6131895;23;20184;-85
2022/03/08 01:51:22;;;;;;;12.70;9.30;;;-1.20;85.40;;;;;;6127925;23;20157;-86
2022/03/08 01:53:48;;;;;;;9.85;8.82;;;-1.10;85.50;;;;;;6135034;23;20422;-86
2022/03/08 01:56:14;;;;;;;14.27;9.77;;;-1.10;85.30;;;;;;6135507;23;20270;-86
2022/03/08 01:58:40;;;;;;;13.50;9.88;;;-1.10;85.30;;;;;;6130378;23;20163;-86
2022/03/08 02:01:07;;;;;;;14.00;9.70;;;-1.40;86.30;;;;;;6133716;23;20318;-87
2022/03/08 02:03:34;;;;;;;14.73;10.25;;;-1.40;87.80;;;;;;6135062;23;20484;-87
2022/03/08 02:05:59;;;;;;;15.00;10.27;;;-1.30;88.20;;;;;;6134303;23;20587;-87
2022/03/08 02:08:26;;;;;;;12.27;8.97;;;-1.50;87.90;;;;;;6135239;23;20160;-86
2022/03/08 02:10:53;;;;;;;13.27;9.70;;;-1.50;87.70;;;;;;6134015;23;20203;-85
2022/03/08 02:13:19;;;;;;;11.75;9.30;;;-1.60;88.30;;;;;;6133163;23;20260;-86
2022/03/08 02:15:49;;;;;;;13.23;9.20;;;-1.70;87.70;;;;;;6134086;23;20298;-86
2022/03/08 02:18:16;;;;;;;13.43;9.88;;;-1.70;87.00;;;;;;6136083;23;20878;-85
2022/03/08 02:20:41;;;;;;;12.82;10.10;;;-1.70;86.90;;;;;;6134709;23;20187;-86
2022/03/08 02:23:07;;;;;;;12.50;9.60;;;-1.70;86.70;;;;;;6133229;23;20192;-86
2022/03/08 02:25:33;;;;;;;13.60;9.30;;;-1.60;86.30;;;;;;6134701;23;20199;-86
2022/03/08 02:27:58;;;;;;;12.20;8.53;;;-1.50;85.30;;;;;;6134928;23;20180;-86
2022/03/08 02:30:26;;;;;;;16.30;10.13;;;-1.50;85.10;;;;;;6137423;23;20160;-85
2022/03/08 02:32:52;;;;;;;13.82;8.73;;;-1.60;85.30;;;;;;6130677;23;20255;-85
2022/03/08 02:35:22;;;;;;;12.55;8.93;;;-1.60;86.40;;;;;;6130652;23;20163;-85
2022/03/08 02:37:57;;;;;;;12.98;8.82;;;-1.60;87.20;;;;;;6136952;23;20157;-86
2022/03/08 02:40:34;;;;;;;14.10;8.90;;;-1.80;87.30;;;;;;6134703;23;20675;-86
2022/03/08 02:43:00;;;;;;;12.68;9.02;;;-1.80;87.40;;;;;;6134548;23;20440;-85
2022/03/08 02:45:36;;;;;;;12.30;9.88;;;-1.70;86.60;;;;;;6130829;23;20456;-85
2022/03/08 02:48:03;;;;;;;12.25;9.35;;;-1.70;86.50;;;;;;6132783;23;20194;-85
2022/03/08 02:50:29;;;;;;;12.88;8.48;;;-1.50;85.50;;;;;;6131903;23;20160;-85
2022/03/08 02:52:56;;;;;;;13.07;7.97;;;-1.40;84.90;;;;;;6136420;23;20167;-88
2022/03/08 02:55:24;;;;;;;12.63;8.98;;;-1.30;84.70;;;;;;6135154;23;20399;-87
2022/03/08 02:58:04;;;;;;;12.52;8.60;;;-1.40;85.30;;;;;;6134602;23;20271;-86
2022/03/08 03:00:31;;;;;;;11.25;7.80;;;-1.30;84.90;;;;;;6135082;23;20159;-86
2022/03/08 03:02:57;;;;;;;12.68;8.50;;;-1.30;85.60;;;;;;6134357;23;20171;-86
2022/03/08 03:05:23;;;;;;;10.53;8.90;;;-1.30;85.20;;;;;;6133158;23;20708;-86
2022/03/08 03:07:48;;;;;;;15.00;9.30;;;-1.30;84.90;;;;;;6130997;23;20611;-86
2022/03/08 03:10:17;;;;;;;10.57;8.50;;;-1.20;84.50;;;;;;6131790;23;20156;-86
2022/03/08 03:12:43;;;;;;;10.82;8.70;;;-1.20;83.80;;;;;;6136501;23;20153;-85
2022/03/08 03:15:11;;;;;;;17.50;8.73;;;-1.30;83.70;;;;;;6132611;23;20948;-86
2022/03/08 03:17:37;;;;;;;12.57;9.07;;;-1.30;84.00;;;;;;6133661;23;20156;-87
2022/03/08 03:20:05;;;;;;;11.13;8.50;;;-1.40;83.60;;;;;;6134871;23;20395;-86
2022/03/08 03:22:30;;;;;;;10.95;8.85;;;-1.40;83.40;;;;;;6135392;23;20830;-86
2022/03/08 03:24:56;;;;;;;10.87;8.10;;;-1.40;83.60;;;;;;6133285;23;20581;-86
2022/03/08 03:27:21;;;;;;;11.50;8.23;;;-1.30;83.60;;;;;;6134580;23;20164;-84
2022/03/08 03:29:47;;;;;;;11.80;7.70;;;-1.30;82.90;;;;;;6132460;23;20455;-84
2022/03/08 03:32:13;;;;;;;9.52;7.85;;;-1.20;83.00;;;;;;6133726;23;20580;-85
2022/03/08 03:34:39;;;;;;;8.90;7.53;;;-1.20;82.20;;;;;;6134356;23;20161;-85
2022/03/08 03:37:04;;;;;;;10.80;7.43;;;-1.20;82.50;;;;;;6131864;23;20617;-85
2022/03/08 03:39:30;;;;;;;11.00;7.73;;;-1.30;82.50;;;;;;6133336;23;20161;-85
2022/03/08 03:41:55;;;;;;;9.27;7.70;;;-1.20;82.60;;;;;;6128180;23;20192;-84
2022/03/08 03:44:21;;;;;;;10.00;8.07;;;-1.20;82.70;;;;;;6131787;23;20191;-84
2022/03/08 03:46:47;;;;;;;13.10;8.53;;;-1.30;84.60;;;;;;6131402;23;20156;-84
2022/03/08 03:49:12;;;;;;;10.50;8.60;;;-1.30;85.20;;;;;;6130421;23;20160;-85
2022/03/08 03:51:38;;;;;;;10.90;8.17;;;-1.50;85.70;;;;;;6127850;23;20160;-84
2022/03/08 03:54:03;;;;;;;11.10;7.97;;;-1.70;87.00;;;;;;6128745;23;20596;-84
2022/03/08 03:56:29;;;;;;;10.97;8.03;;;-1.70;86.60;;;;;;6130234;23;20165;-84
2022/03/08 03:58:54;;;;;;;9.30;7.50;;;-1.70;86.20;;;;;;6134560;23;20207;-85
2022/03/08 04:01:20;;;;;;;10.83;7.40;;;-1.60;85.70;;;;;;6134637;23;20659;-85
2022/03/08 04:03:46;;;;;;;9.50;7.77;;;-1.70;86.90;;;;;;6131345;23;20682;-85
2022/03/08 04:06:12;;;;;;;13.57;7.75;;;-1.70;86.90;;;;;;6132114;23;20156;-84
2022/03/08 04:08:38;;;;;;;8.50;6.70;;;-1.70;85.90;;;;;;6129233;23;20632;-84
2022/03/08 04:11:03;;;;;;;11.73;7.13;;;-1.70;85.30;;;;;;6131984;23;20297;-85
2022/03/08 04:13:29;;;;;;;10.57;6.87;;;-1.60;84.70;;;;;;6138771;23;20599;-85
2022/03/08 04:15:54;;;;;;;12.93;7.50;;;-1.70;84.70;;;;;;6138602;23;20195;-85
2022/03/08 04:18:20;;;;;;;9.53;6.63;;;-1.70;85.10;;;;;;6139295;23;20631;-85
2022/03/08 04:20:46;;;;;;;10.20;7.43;;;-1.70;85.50;;;;;;6138853;23;20168;-85
2022/03/08 04:23:11;;;;;;;10.30;7.03;;;-1.70;85.80;;;;;;6139417;23;20488;-86
2022/03/08 04:25:37;;;;;;;9.67;6.67;;;-1.60;86.20;;;;;;6149995;23;20230;-85
2022/03/08 04:28:04;;;;;;;11.17;7.50;;;-1.60;85.80;;;;;;6145580;23;20278;-85
2022/03/08 04:30:30;;;;;;;8.32;6.28;;;-1.60;85.90;;;;;;6139135;23;20184;-86
2022/03/08 04:32:55;;;;;;;8.88;6.32;;;-1.60;85.70;;;;;;6131897;23;20164;-85
2022/03/08 04:35:21;;;;;;;8.10;6.80;;;-1.60;85.80;;;;;;6126527;23;20166;-85
2022/03/08 04:37:47;;;;;;;9.97;6.63;;;-1.60;85.70;;;;;;6131330;23;20157;-85
2022/03/08 04:40:13;;;;;;;9.63;6.10;;;-1.60;85.50;;;;;;6130456;23;20623;-84
2022/03/08 04:42:40;;;;;;;9.88;6.60;;;-1.50;85.60;;;;;;6127920;23;20435;-85
2022/03/08 04:45:07;;;;;;;10.15;6.88;;;-1.50;85.80;;;;;;6128951;23;20157;-84
2022/03/08 04:47:35;;;;;;;8.50;6.72;;;-1.60;85.20;;;;;;6128966;23;20164;-85
2022/03/08 04:50:02;;;;;;;7.70;6.10;;;-1.60;84.80;;;;;;6132449;23;20789;-85
2022/03/08 04:52:28;;;;;;;9.85;6.50;;;-1.70;84.70;;;;;;6127147;23;21119;-85
2022/03/08 04:54:54;;;;;;;12.23;7.13;;;-1.70;85.40;;;;;;6129248;23;20234;-84
2022/03/08 04:57:19;;;;;;;10.30;7.73;;;-1.80;86.40;;;;;;6129987;23;20529;-84
2022/03/08 04:59:45;;;;;;;11.53;6.77;;;-1.90;87.10;;;;;;6129835;23;20219;-85
2022/03/08 05:02:10;;;;;;;8.53;6.07;;;-1.80;86.00;;;;;;6133943;23;20608;-85
2022/03/08 05:04:36;;;;;;;8.00;6.00;;;-1.80;85.80;;;;;;6131186;23;20244;-85
2022/03/08 05:07:01;;;;;;;9.50;7.03;;;-1.70;85.60;;;;;;6130105;23;20166;-86
2022/03/08 05:09:27;;;;;;;9.03;7.07;;;-1.70;85.40;;;;;;6130749;23;20570;-86
2022/03/08 05:11:53;;;;;;;8.60;6.70;;;-1.70;85.60;;;;;;6136194;23;20163;-85
2022/03/08 05:14:18;;;;;;;9.53;6.80;;;-1.80;85.70;;;;;;6129334;23;20247;-86
2022/03/08 05:16:44;;;;;;;8.13;6.50;;;-1.70;86.10;;;;;;6133321;23;20721;-84
2022/03/08 05:19:10;;;;;;;7.00;5.77;;;-1.80;86.00;;;;;;6125957;23;20298;-85
2022/03/08 05:21:35;;;;;;;8.90;6.43;;;-1.70;85.70;;;;;;6129150;23;20702;-84
2022/03/08 05:24:01;;;;;;;7.77;6.30;;;-1.70;85.10;;;;;;6128572;23;20617;-85
2022/03/08 05:26:26;;;;;;;7.70;5.30;;;-1.70;84.90;;;;;;6130439;23;20167;-85
2022/03/08 05:28:52;;;;;;;10.33;6.77;;;-1.60;84.50;;;;;;6133541;23;20275;-84
2022/03/08 05:31:17;;;;;;;11.03;6.23;;;-1.60;84.70;;;;;;6134526;23;20163;-86
2022/03/08 05:33:43;;;;;;;6.70;6.00;;;-1.60;85.00;;;;;;6128845;23;20654;-87
2022/03/08 05:36:08;;;;;;;9.97;7.13;;;-1.50;85.60;;;;;;6132319;23;20160;-88
2022/03/08 05:38:34;;;;;;;7.83;6.27;;;-1.60;85.80;;;;;;6133493;23;20183;-88
2022/03/08 05:41:00;;;;;;;11.20;6.93;;;-1.60;85.80;;;;;;6128629;23;20619;-88
2022/03/08 05:43:26;;;;;;;9.10;6.67;;;-1.60;85.60;;;;;;6133516;23;20191;-87
2022/03/08 05:45:51;;;;;;;10.70;7.25;;;-1.60;84.90;;;;;;6128491;23;20578;-87
2022/03/08 05:48:17;;;;;;;8.27;5.97;;;-1.60;85.00;;;;;;6130931;23;20267;-88
2022/03/08 05:50:43;;;;;;;9.43;6.30;;;-1.60;85.20;;;;;;6130854;23;20663;-88
2022/03/08 05:53:08;;;;;;;7.63;6.50;;;-1.50;84.70;;;;;;6132679;23;20164;-87
2022/03/08 05:55:34;;;;;;;9.23;6.93;;;-1.40;84.80;;;;;;6133796;23;20156;-88
2022/03/08 05:57:59;;;;;;;8.20;6.00;;;-1.40;84.70;;;;;;6131928;23;20168;-88
2022/03/08 06:00:25;;;;;;;12.80;8.20;;;-1.40;85.20;;;;;;6135210;23;20528;-88
2022/03/08 06:02:51;;;;;;;9.27;6.57;;;-1.30;85.10;;;;;;6136102;23;20184;-87
2022/03/08 06:05:17;;;;;;;8.60;6.27;;;-1.40;85.00;;;;;;6140480;23;20156;-88
2022/03/08 06:07:42;;;;;;;7.53;5.87;;;-1.30;84.80;;;;;;6134528;23;20161;-88
2022/03/08 06:10:09;;;;;;;8.60;6.50;;;-1.40;84.70;;;;;;6133253;23;20165;-86
2022/03/08 06:12:35;;;;;;;7.32;5.80;;;-1.20;84.90;;;;;;6143220;23;20419;-88
2022/03/08 06:15:01;;;;;;;10.70;7.00;;;-1.30;85.70;;;;;;6133588;23;20156;-87
2022/03/08 06:17:27;;;;;;;9.40;6.50;;;-1.20;86.00;;;;;;6132938;23;20650;-87
2022/03/08 06:19:52;;;;;;;6.57;5.97;;;-1.20;85.90;;;;;;6128015;23;20590;-87
2022/03/08 06:22:18;;;;;;;7.87;7.00;;;-1.20;85.90;;;;;;6132588;23;20477;-89
2022/03/08 06:24:44;;;;;;;8.93;6.33;;;-1.10;86.20;;;;;;6159872;23;20157;-88
2022/03/08 06:27:10;;;;;;;7.53;6.13;;;-1.10;86.30;;;;;;6131929;23;20407;-90
2022/03/08 06:29:36;;;;;;;8.23;6.20;;;-1.10;86.60;;;;;;6138089;23;20616;-88
2022/03/08 06:32:02;;;;;;;7.63;6.30;;;-1.00;86.00;;;;;;6135920;23;20183;-89
2022/03/08 06:34:27;;;;;;;9.73;6.60;;;-0.90;86.00;;;;;;6132788;23;20157;-87
2022/03/08 06:37:02;;;;;;;8.90;6.50;;;-0.90;85.60;;;;;;6135979;23;20446;-84
2022/03/08 06:39:33;;;;;;;7.90;6.07;;;-0.90;86.30;;;;;;6138590;23;20155;-93
2022/03/08 06:42:39;;;;;;;7.67;6.87;;;-0.80;87.00;;;;;;6135986;23;20440;-91
2022/03/08 06:45:34;;;;;;;8.23;6.47;;;-0.80;87.90;;;;;;6084797;23;20406;-89
2022/03/08 06:47:59;;;;;;;8.02;6.97;;;-0.70;87.60;;;;;;6137907;23;20787;-93
2022/03/08 06:50:25;;;;;;;7.87;6.60;;;-0.60;87.20;;;;;;6161581;23;20210;-87
2022/03/08 06:52:50;;;;;;;6.90;6.03;;;-0.50;87.30;;;;;;6130373;23;20755;-88
2022/03/08 06:55:16;;;;;;;8.70;6.20;;;-0.40;85.50;;;;;;6132546;23;20160;-89
2022/03/08 06:57:42;;;;;;;7.80;6.00;;;-0.40;85.50;;;;;;6136648;23;20570;-87
2022/03/08 07:00:29;;;;;;;9.00;6.93;;;-0.30;85.70;;;;;;6132701;23;20171;-87
2022/03/08 07:03:06;;;;;;;10.23;7.17;;;-0.20;84.60;;;;;;6133791;23;20661;-88
2022/03/08 07:05:36;;;;;;;7.83;6.33;;;-0.10;83.60;;;;;;6137803;23;20412;-89
2022/03/08 07:08:02;;;;;;;8.13;7.00;;;0.00;83.70;;;;;;6138641;23;20375;-88
2022/03/08 07:10:46;;;;;;;9.10;6.77;;;0.00;82.80;;;;;;6132665;23;20563;-88
2022/03/08 07:13:16;;;;;;;10.00;6.70;;;0.20;82.40;;;;;;6130850;23;20220;-91
2022/03/08 07:15:42;;;;;;;7.40;6.30;;;0.30;82.60;;;;;;6120910;23;20422;-89
2022/03/08 07:18:12;;;;;;;8.67;6.97;;;0.40;82.30;;;;;;6129406;23;20417;-90
2022/03/08 07:21:04;;;;;;;7.27;6.20;;;0.60;82.80;;;;;;6135702;23;20171;-89
2022/03/08 07:23:30;;;;;;;8.57;6.50;;;0.70;82.30;;;;;;6161780;23;20404;-90
2022/03/08 07:25:56;;;;;;;7.00;6.30;;;0.80;82.00;;;;;;6134969;23;20443;-89
2022/03/08 07:28:24;;;;;;;8.50;7.07;;;1.00;81.70;;;;;;6135780;23;20988;-88
2022/03/08 07:30:53;;;;;;;8.63;6.70;;;1.20;82.00;;;;;;6136925;23;20211;-87
2022/03/08 07:33:22;;;;;;;8.63;6.70;;;1.40;81.80;;;;;;6144300;23;20442;-89
2022/03/08 07:35:50;;;;;;;7.50;6.17;;;1.50;81.80;;;;;;6138519;23;20445;-88
2022/03/08 07:38:26;;;;;;;8.70;7.03;;;1.70;81.10;;;;;;6135520;23;20594;-87
2022/03/08 07:40:52;;;;;;;7.90;6.63;;;1.80;80.90;;;;;;6133023;23;20806;-88
2022/03/08 07:43:17;;;;;;;8.80;7.60;;;2.00;81.10;;;;;;6135610;23;20408;-87
2022/03/08 07:45:43;;;;;;;8.20;7.40;;;1.90;81.80;;;;;;6136032;23;20672;-88
2022/03/08 07:48:09;;;;;;;7.43;6.67;;;2.10;82.10;;;;;;6135036;23;20614;-87
2022/03/08 07:50:35;;;;;;;8.70;7.80;;;2.20;82.20;;;;;;6137465;23;20163;-88
2022/03/08 07:53:01;;;;;;;7.57;6.87;;;2.40;82.00;;;;;;6134600;23;20319;-87
2022/03/08 07:55:29;;;;;;;7.97;6.90;;;2.50;81.80;;;;;;6136525;23;20871;-88
2022/03/08 07:57:55;;;;;;;7.57;6.87;;;2.60;81.80;;;;;;6135681;23;20882;-87
2022/03/08 08:00:21;;;;;;;7.57;6.77;;;2.80;81.50;;;;;;6134616;23;20393;-89
2022/03/08 08:02:48;;;;;;;7.47;6.77;;;2.90;80.40;;;;;;6132033;23;20439;-88
2022/03/08 08:05:13;;;;;;;8.57;7.67;;;3.00;79.70;;;;;;6137243;23;20526;-87
2022/03/08 08:07:45;;;;;;;8.23;7.43;;;3.00;80.10;;;;;;6133587;23;20491;-88
2022/03/08 08:10:57;;;;;;;8.33;7.30;;;3.20;80.50;;;;;;6160271;23;20181;-88
2022/03/08 08:13:32;;;;;;;8.67;7.77;;;3.40;79.10;;;;;;6159457;23;20462;-88
2022/03/08 08:15:58;;;;;;;8.73;7.13;;;3.40;78.10;;;;;;6129034;23;20392;-88
2022/03/08 08:18:24;;;;;;;8.80;6.87;;;3.50;78.30;;;;;;6136232;23;20172;-88
2022/03/08 08:20:49;;;;;;;15.33;7.40;;;3.80;77.00;;;;;;6131884;23;20473;-87
2022/03/08 08:23:15;;;;;;;7.70;6.90;;;3.90;78.30;;;;;;6130211;23;20747;-88
2022/03/08 08:25:41;;;;;;;8.07;7.27;;;3.90;76.40;;;;;;6130273;23;20490;-88
2022/03/08 08:28:06;;;;;;;10.17;6.97;;;3.90;76.30;;;;;;6136477;23;20656;-88
2022/03/08 08:30:33;;;;;;;8.17;6.70;;;4.00;76.00;;;;;;6131722;23;20160;-89
2022/03/08 08:33:05;;;;;;;7.00;6.30;;;4.10;75.60;;;;;;6133394;23;20570;-90
2022/03/08 08:35:40;;;;;;;7.97;6.23;;;4.30;75.10;;;;;;6123248;23;20863;-88
2022/03/08 08:38:05;;;;;;;7.87;7.10;;;4.60;72.50;;;;;;6131805;23;20398;-89
2022/03/08 08:40:34;;;;;;;8.80;7.13;;;4.80;71.20;;;;;;6127627;23;20734;-88
2022/03/08 08:43:00;;;;;;;6.77;6.13;;;4.70;72.20;;;;;;6129092;23;20643;-89
2022/03/08 08:45:26;;;;;;;7.70;6.90;;;4.60;72.60;;;;;;6130346;23;20841;-89
2022/03/08 08:47:52;;;;;;;8.40;6.27;;;4.70;71.80;;;;;;6136468;23;20167;-88
2022/03/08 08:50:19;;;;;;;9.80;6.87;;;4.70;71.60;;;;;;6133969;23;20156;-89
2022/03/08 08:52:47;;;;;;;7.10;6.40;;;4.90;72.50;;;;;;6131364;23;20396;-89
2022/03/08 08:55:13;;;;;;;6.13;5.47;;;5.20;71.10;;;;;;6127571;23;20390;-88
2022/03/08 08:57:39;;;;;;;7.47;6.60;;;5.50;69.90;;;;;;6129730;23;20391;-89
2022/03/08 09:00:07;;;;;;;6.53;5.93;;;5.70;69.50;;;;;;6132949;23;20161;-89
2022/03/08 09:02:34;;;;;;;6.80;6.10;;;5.60;67.20;;;;;;6131204;23;20446;-89
2022/03/08 09:05:00;;;;;;;6.40;5.77;;;5.20;67.30;;;;;;6133010;23;20388;-89
2022/03/08 09:07:25;;;;;;;7.63;5.90;;;5.20;68.50;;;;;;6133087;23;20414;-88
2022/03/08 09:09:51;;;;;;;8.07;5.73;;;5.50;66.80;;;;;;6133849;23;20483;-89
2022/03/08 09:12:17;;;;;;;6.40;5.70;;;5.50;65.10;;;;;;6131196;23;20601;-89
2022/03/08 09:14:42;;;;;;;7.20;5.77;;;5.30;67.10;;;;;;6130224;23;20157;-89
2022/03/08 09:17:08;;;;;;;9.23;6.13;;;5.40;67.70;;;;;;6132743;23;20170;-89
2022/03/08 09:19:34;;;;;;;6.53;5.63;;;5.50;67.50;;;;;;6127368;23;20635;-89
2022/03/08 09:22:00;;;;;;;7.40;5.50;;;5.70;67.90;;;;;;6133943;23;20945;-89
2022/03/08 09:24:28;;;;;;;7.50;5.40;;;6.00;66.20;;;;;;6105844;23;20166;-89
2022/03/08 09:26:54;;;;;;;5.87;5.27;;;6.20;64.10;;;;;;6138223;23;20478;-89
2022/03/08 09:29:21;;;;;;;6.17;5.37;;;6.30;63.30;;;;;;6135693;23;21063;-88
2022/03/08 09:31:47;;;;;;;7.00;5.57;;;5.90;62.90;;;;;;6129178;23;20475;-89
2022/03/08 09:34:14;;;;;;;5.93;5.33;;;6.00;63.90;;;;;;6101501;23;20498;-89
2022/03/08 09:36:46;;;;;;;6.67;5.67;;;6.20;63.00;;;;;;6158715;23;20465;-87
2022/03/08 09:39:12;;;;;;;6.47;5.70;;;6.20;64.00;;;;;;6133578;23;20500;-88
2022/03/08 09:41:41;;;;;;;7.33;6.63;;;6.40;63.40;;;;;;6133462;23;20867;-88
2022/03/08 09:44:12;;;;;;;8.40;6.03;;;6.60;62.90;;;;;;6131295;23;21004;-88
2022/03/08 09:46:38;;;;;;;7.40;6.57;;;6.70;59.80;;;;;;6132958;23;20390;-88
2022/03/08 09:49:05;;;;;;;6.03;5.33;;;6.90;60.00;;;;;;6132510;23;20405;-88
2022/03/08 09:51:31;;;;;;;7.10;5.70;;;6.70;58.60;;;;;;6107552;23;20461;-88
2022/03/08 09:53:56;;;;;;;6.10;5.47;;;6.80;58.50;;;;;;6134067;23;20390;-88
2022/03/08 09:56:22;;;;;;;6.80;6.03;;;6.90;58.50;;;;;;6134928;23;20158;-89
2022/03/08 09:58:48;;;;;;;7.60;6.40;;;6.90;58.90;;;;;;6129209;23;20158;-89
2022/03/08 10:01:16;;;;;;;5.80;5.20;;;7.00;57.50;;;;;;6133710;23;20233;-88
2022/03/08 10:03:44;;;;;;;6.77;5.60;;;7.00;57.10;;;;;;6131469;23;20406;-88
2022/03/08 10:06:11;;;;;;;5.90;5.30;;;7.10;59.50;;;;;;6134636;23;20474;-88
2022/03/08 10:08:40;;;;;;;6.40;5.43;;;7.20;59.60;;;;;;6134809;23;20812;-88
2022/03/08 10:11:14;;;;;;;5.80;5.20;;;7.60;58.70;;;;;;6130997;23;20470;-88
2022/03/08 10:13:43;;;;;;;6.60;4.83;;;7.80;55.70;;;;;;6132414;23;20523;-87
2022/03/08 10:16:24;;;;;;;6.10;5.60;;;7.70;54.70;;;;;;6135902;23;20391;-88
2022/03/08 10:19:03;;;;;;;7.50;6.13;;;7.60;54.20;;;;;;6143771;23;20386;-90
2022/03/08 10:21:29;;;;;;;7.17;4.73;;;7.50;54.60;;;;;;6164723;23;20765;-90
2022/03/08 10:23:55;;;;;;;7.87;5.67;;;7.50;54.50;;;;;;6136199;23;20469;-88
2022/03/08 10:26:22;;;;;;;5.57;5.00;;;7.60;55.70;;;;;;6137476;23;20234;-91
2022/03/08 10:28:53;;;;;;;7.87;5.73;;;7.90;56.80;;;;;;6136605;23;20434;-89
2022/03/08 10:31:18;;;;;;;6.67;5.27;;;8.10;53.50;;;;;;6139309;23;20408;-87
2022/03/08 10:33:46;;;;;;;5.93;5.33;;;8.00;54.90;;;;;;6138159;23;20881;-86
2022/03/08 10:36:20;;;;;;;6.33;5.73;;;8.10;53.70;;;;;;6141654;23;20395;-90
2022/03/08 10:39:31;;;;;;;5.40;4.90;;;8.50;52.40;;;;;;6157691;23;20402;-96
2022/03/08 10:41:58;;;;;;;5.73;5.10;;;8.30;52.10;;;;;;6176487;23;20419;-95
2022/03/08 10:44:41;;;;;;;6.70;5.10;;;8.20;53.10;;;;;;6157816;23;20466;-95
2022/03/08 10:55:32;;;;;;;8.47;5.70;;;8.90;55.20;;;;;;6151516;23;20750;-91
2022/03/08 10:58:07;;;;;;;6.93;6.30;;;9.20;52.50;;;;;;6144405;23;20404;-87
2022/03/08 11:00:54;;;;;;;7.57;6.13;;;8.90;50.80;;;;;;6141177;23;20404;-87
2022/03/08 11:03:24;;;;;;;6.63;5.93;;;8.90;54.00;;;;;;6166031;23;20395;-87
2022/03/08 11:05:54;;;;;;;6.97;5.20;;;8.60;53.10;;;;;;6140930;23;20395;-92
2022/03/08 11:08:28;;;;;;;9.40;5.70;;;8.70;53.50;;;;;;6142167;23;20890;-88
2022/03/08 11:10:54;;;;;;;6.43;5.73;;;9.10;53.50;;;;;;6142709;23;20633;-87
2022/03/08 11:13:20;;;;;;;6.60;6.00;;;9.30;53.30;;;;;;6141583;23;20402;-88
2022/03/08 11:15:46;;;;;;;7.00;6.30;;;9.50;54.00;;;;;;6141590;23;20166;-88
2022/03/08 11:18:34;;;;;;;7.70;5.60;;;9.70;51.80;;;;;;6142177;23;20511;-88
2022/03/08 11:21:01;;;;;;;7.60;6.80;;;9.50;52.60;;;;;;6166838;23;20204;-86
2022/03/08 11:23:30;;;;;;;6.47;5.87;;;9.70;51.90;;;;;;6142711;23;20446;-89
2022/03/08 11:25:56;;;;;;;8.20;6.17;;;9.40;52.00;;;;;;6142572;23;20393;-87
2022/03/08 11:28:22;;;;;;;7.13;6.43;;;9.40;52.90;;;;;;6138910;23;20407;-86
2022/03/08 11:30:54;;;;;;;6.50;5.90;;;9.60;51.90;;;;;;6138052;23;20456;-86
2022/03/08 11:34:13;;;;;;;6.80;6.20;;;9.50;50.20;;;;;;6136651;23;20161;-89
2022/03/08 11:36:51;;;;;;;7.57;6.03;;;9.30;50.80;;;;;;6112295;23;20402;-86
2022/03/08 11:39:28;;;;;;;6.10;5.50;;;9.80;51.40;;;;;;6142805;23;20382;-90
2022/03/08 11:42:20;;;;;;;8.53;6.60;;;10.30;46.70;;;;;;6139932;23;20430;-85
2022/03/08 11:45:11;;;;;;;8.67;6.90;;;10.60;49.80;;;;;;6131430;23;20825;-86
2022/03/08 11:47:52;;;;;;;8.70;7.07;;;10.40;44.90;;;;;;6131220;23;20858;-86
2022/03/08 11:50:35;;;;;;;6.23;5.63;;;10.30;47.30;;;;;;6135181;23;20431;-87
2022/03/08 11:53:06;;;;;;;7.03;6.33;;;10.40;48.40;;;;;;6135386;23;20605;-87
2022/03/08 11:55:47;;;;;;;7.13;6.40;;;10.50;47.30;;;;;;6132013;23;20419;-87
2022/03/08 11:58:23;;;;;;;7.17;6.17;;;10.70;49.20;;;;;;6134953;23;20986;-87
2022/03/08 12:00:55;;;;;;;7.30;6.63;;;10.90;45.80;;;;;;6130813;23;20434;-86
2022/03/08 12:03:24;;;;;;;9.63;6.97;;;10.80;47.60;;;;;;6131454;23;20410;-86
2022/03/08 12:06:28;;;;;;;6.87;6.17;;;10.80;48.40;;;;;;6133913;23;20399;-85
2022/03/08 12:09:09;;;;;;;7.97;6.70;;;10.90;44.30;;;;;;6058750;23;20530;-86
2022/03/08 12:11:44;;;;;;;7.43;6.83;;;10.80;44.80;;;;;;6134318;23;20845;-87
2022/03/08 12:14:14;;;;;;;7.03;6.20;;;10.50;47.10;;;;;;6132709;23;20531;-87
2022/03/08 12:16:49;;;;;;;6.57;5.97;;;11.00;45.70;;;;;;6133673;23;20953;-87
2022/03/08 12:19:21;;;;;;;8.47;6.93;;;10.70;46.20;;;;;;6132163;23;20398;-87
2022/03/08 12:22:32;;;;;;;;;;;;;;;;;;;;;
2022/03/08 12:24:59;;;;;;;7.03;6.20;;;10.80;44.60;;;;;;6108723;23;20400;-87
2022/03/08 12:27:46;;;;;;;7.53;6.40;;;10.90;45.70;;;;;;6135546;23;20388;-86
2022/03/08 12:30:11;;;;;;;7.70;7.00;;;11.20;46.30;;;;;;6136888;23;20388;-87
2022/03/08 12:32:42;;;;;;;7.60;6.50;;;11.00;45.60;;;;;;6135469;23;20395;-88
2022/03/08 12:35:22;;;;;;;8.97;8.10;;;11.40;47.20;;;;;;6134392;23;20158;-87
2022/03/08 12:37:59;;;;;;;8.60;7.70;;;11.50;47.30;;;;;;6134893;23;20850;-87
2022/03/08 12:40:51;;;;;;;7.90;7.20;;;11.30;46.70;;;;;;6135384;23;20692;-87
2022/03/08 12:43:16;;;;;;;7.50;6.73;;;11.00;47.10;;;;;;6138049;23;20923;-86
2022/03/08 12:45:45;;;;;;;8.17;7.37;;;11.20;45.90;;;;;;6133661;23;20406;-86
2022/03/08 12:48:19;;;;;;;10.10;7.53;;;11.30;46.60;;;;;;6132344;23;20651;-85
2022/03/08 12:50:54;;;;;;;8.23;7.43;;;12.00;46.00;;;;;;6132929;23;20384;-86
2022/03/08 12:53:31;;;;;;;8.87;7.20;;;11.90;45.50;;;;;;6132076;23;20403;-87
2022/03/08 12:56:13;;;;;;;7.97;6.40;;;11.30;46.30;;;;;;6131718;23;21255;-86
2022/03/08 12:58:42;;;;;;;7.70;6.80;;;11.80;42.70;;;;;;6161953;23;20434;-86
2022/03/08 13:01:12;;;;;;;8.93;7.60;;;11.70;42.20;;;;;;6129792;23;20388;-86
2022/03/08 13:03:43;;;;;;;7.80;7.00;;;11.70;43.70;;;;;;6132221;23;20415;-86